This is the latest recevied weather packets stored in our database for station/object N6RDS. If no packets are shown the sender has not sent any weather packets the latest 10 day(s).
| Time | Temp. | Humidity | Pressure | Rain* | Wind** | Luminosity | Snow |
|---|---|---|---|---|---|---|---|
| 1777557181 | 6.67° C | 43% | 1023.7 hPa | 0 mm | - | 91 W/m² | - |
| 1777556876 | 5° C | 46% | 1023.7 hPa | 0 mm | - | 80 W/m² | - |
| 1777556572 | 4.44° C | 49% | 1023.3 hPa | 0 mm | - | 70 W/m² | - |
| 1777556272 | 2.22° C | 54% | 1023.3 hPa | 0 mm | - | 60 W/m² | - |
| 1777555968 | 1.67° C | 55% | 1023.3 hPa | 0 mm | - | 51 W/m² | - |
| 1777555663 | 0.56° C | 58% | 1023.1 hPa | 0 mm | - | 44 W/m² | - |
| 1777555360 | -0.56° C | 62% | 1023.2 hPa | 0 mm | - | 37 W/m² | - |
| 1777555057 | -1.67° C | 65% | 1023.2 hPa | 0 mm | - | 30 W/m² | - |
| 1777554754 | -2.22° C | 67% | 1023.4 hPa | 0 mm | - | 20 W/m² | - |
| 1777554451 | -2.22° C | 67% | 1023.2 hPa | 0 mm | - | 17 W/m² | - |
| 1777554147 | -2.22° C | 67% | 1023.1 hPa | 0 mm | - | 14 W/m² | - |
| 1777553844 | -2.22° C | 67% | 1023.2 hPa | 0 mm | - | 12 W/m² | - |
| 1777553535 | -2.78° C | 67% | 1023.3 hPa | 0 mm | - | 9 W/m² | - |
| 1777553231 | -2.22° C | 67% | 1022.9 hPa | 0 mm | - | 7 W/m² | - |
| 1777552927 | -2.22° C | 67% | 1023.1 hPa | 0 mm | - | 5 W/m² | - |
| 1777552621 | -2.22° C | 66% | 1023.2 hPa | 0 mm | - | 3 W/m² | - |
| 1777552319 | -2.22° C | 66% | 1023.2 hPa | 0 mm | - | 1 W/m² | - |
| 1777552015 | -2.22° C | 66% | 1022.9 hPa | 0 mm | - | 1 W/m² | - |
| 1777551712 | -2.22° C | 66% | 1023.2 hPa | 0 mm | - | 0 W/m² | - |
| 1777551410 | -2.22° C | 65% | 1023.2 hPa | 0 mm | - | 0 W/m² | - |
| 1777551105 | -2.22° C | 66% | 1023.2 hPa | 0 mm | - | 0 W/m² | - |
| 1777550803 | -2.22° C | 65% | 1023.3 hPa | 0 mm | - | 0 W/m² | - |
| 1777550494 | -2.22° C | 65% | 1023.1 hPa | 0 mm | - | 0 W/m² | - |
| 1777550190 | -1.67° C | 64% | 1023.1 hPa | 0 mm | - | 0 W/m² | - |
| 1777549887 | -1.67° C | 65% | 1023.4 hPa | 0 mm | - | 0 W/m² | - |
* Rain latest hour (hover to see other rain measurements)
** Current wind speed in m/s (hover to see current wind gust speed)